sensor_id;sensor_type;location;lat;lon;timestamp;temperature;humidity
51739;DHT22;37815;52.692;6.226;2022-09-09T00:02:21;19.70;93.10
51739;DHT22;37815;52.692;6.226;2022-09-09T00:07:43;19.70;93.10
51739;DHT22;37815;52.692;6.226;2022-09-09T00:18:35;19.70;93.10
51739;DHT22;37815;52.692;6.226;2022-09-09T00:23:40;19.70;93.10
51739;DHT22;37815;52.692;6.226;2022-09-09T00:28:55;19.60;93.10
51739;DHT22;37815;52.692;6.226;2022-09-09T00:34:21;19.60;93.00
51739;DHT22;37815;52.692;6.226;2022-09-09T00:39:32;19.60;93.10
51739;DHT22;37815;52.692;6.226;2022-09-09T00:44:37;19.60;93.00
51739;DHT22;37815;52.692;6.226;2022-09-09T00:49:46;19.60;93.10
51739;DHT22;37815;52.692;6.226;2022-09-09T01:00:19;19.50;93.00
51739;DHT22;37815;52.692;6.226;2022-09-09T01:05:36;19.50;93.00
51739;DHT22;37815;52.692;6.226;2022-09-09T01:10:49;19.50;93.00
51739;DHT22;37815;52.692;6.226;2022-09-09T01:15:50;19.50;93.00
51739;DHT22;37815;52.692;6.226;2022-09-09T01:21:08;19.50;93.00
51739;DHT22;37815;52.692;6.226;2022-09-09T01:31:14;19.50;93.00
51739;DHT22;37815;52.692;6.226;2022-09-09T01:36:24;19.50;93.00
51739;DHT22;37815;52.692;6.226;2022-09-09T01:41:27;19.50;93.00
51739;DHT22;37815;52.692;6.226;2022-09-09T01:46:28;19.50;93.00
51739;DHT22;37815;52.692;6.226;2022-09-09T01:51:29;19.40;93.00
51739;DHT22;37815;52.692;6.226;2022-09-09T02:02:16;19.40;93.10
51739;DHT22;37815;52.692;6.226;2022-09-09T02:07:43;19.40;93.10
51739;DHT22;37815;52.692;6.226;2022-09-09T02:12:56;19.40;93.10
51739;DHT22;37815;52.692;6.226;2022-09-09T02:18:04;19.40;93.20
51739;DHT22;37815;52.692;6.226;2022-09-09T02:23:09;19.40;93.20
51739;DHT22;37815;52.692;6.226;2022-09-09T02:28:12;19.30;93.20
51739;DHT22;37815;52.692;6.226;2022-09-09T02:33:14;19.30;93.20
51739;DHT22;37815;52.692;6.226;2022-09-09T02:38:16;19.30;93.20
51739;DHT22;37815;52.692;6.226;2022-09-09T02:43:17;19.30;93.20
51739;DHT22;37815;52.692;6.226;2022-09-09T02:48:31;19.30;93.20
51739;DHT22;37815;52.692;6.226;2022-09-09T02:53:49;19.30;93.30
51739;DHT22;37815;52.692;6.226;2022-09-09T02:58:52;19.30;93.30
51739;DHT22;37815;52.692;6.226;2022-09-09T03:03:52;19.30;93.30
51739;DHT22;37815;52.692;6.226;2022-09-09T03:08:55;19.30;93.30
51739;DHT22;37815;52.692;6.226;2022-09-09T03:13:56;19.30;93.30
51739;DHT22;37815;52.692;6.226;2022-09-09T03:18:57;19.30;93.30
51739;DHT22;37815;52.692;6.226;2022-09-09T03:23:58;19.20;93.40
51739;DHT22;37815;52.692;6.226;2022-09-09T03:28:58;19.20;93.30
51739;DHT22;37815;52.692;6.226;2022-09-09T03:34:00;19.20;93.30
51739;DHT22;37815;52.692;6.226;2022-09-09T03:39:01;19.20;93.30
51739;DHT22;37815;52.692;6.226;2022-09-09T03:44:03;19.20;93.40
51739;DHT22;37815;52.692;6.226;2022-09-09T03:49:04;19.20;93.40
51739;DHT22;37815;52.692;6.226;2022-09-09T03:54:05;19.10;93.30
51739;DHT22;37815;52.692;6.226;2022-09-09T03:59:08;19.20;93.40
51739;DHT22;37815;52.692;6.226;2022-09-09T04:04:09;19.20;93.40
51739;DHT22;37815;52.692;6.226;2022-09-09T04:09:10;19.10;93.40
51739;DHT22;37815;52.692;6.226;2022-09-09T04:14:10;19.10;93.40
51739;DHT22;37815;52.692;6.226;2022-09-09T04:19:12;19.10;93.40
51739;DHT22;37815;52.692;6.226;2022-09-09T04:24:14;19.10;93.40
51739;DHT22;37815;52.692;6.226;2022-09-09T04:29:16;19.10;93.40
51739;DHT22;37815;52.692;6.226;2022-09-09T04:34:17;19.00;93.40
51739;DHT22;37815;52.692;6.226;2022-09-09T04:39:18;19.00;93.40
51739;DHT22;37815;52.692;6.226;2022-09-09T04:44:20;19.00;93.40
51739;DHT22;37815;52.692;6.226;2022-09-09T04:49:20;19.00;93.40
51739;DHT22;37815;52.692;6.226;2022-09-09T04:54:21;19.00;93.40
51739;DHT22;37815;52.692;6.226;2022-09-09T04:59:22;19.00;93.40
51739;DHT22;37815;52.692;6.226;2022-09-09T05:04:22;19.00;93.40
51739;DHT22;37815;52.692;6.226;2022-09-09T05:09:23;18.90;93.40
51739;DHT22;37815;52.692;6.226;2022-09-09T05:14:24;18.90;93.40
51739;DHT22;37815;52.692;6.226;2022-09-09T05:19:24;18.90;93.40
51739;DHT22;37815;52.692;6.226;2022-09-09T05:24:25;18.80;93.40
51739;DHT22;37815;52.692;6.226;2022-09-09T05:29:26;18.90;93.40
51739;DHT22;37815;52.692;6.226;2022-09-09T05:34:27;18.90;93.40
51739;DHT22;37815;52.692;6.226;2022-09-09T05:39:28;18.90;93.40
51739;DHT22;37815;52.692;6.226;2022-09-09T05:44:28;18.90;93.30
51739;DHT22;37815;52.692;6.226;2022-09-09T05:49:29;18.90;93.60
51739;DHT22;37815;52.692;6.226;2022-09-09T05:54:30;18.90;93.30
51739;DHT22;37815;52.692;6.226;2022-09-09T05:59:31;18.70;93.20
51739;DHT22;37815;52.692;6.226;2022-09-09T06:04:32;18.80;93.30
51739;DHT22;37815;52.692;6.226;2022-09-09T06:09:34;18.80;93.30
51739;DHT22;37815;52.692;6.226;2022-09-09T06:14:34;18.80;93.20
51739;DHT22;37815;52.692;6.226;2022-09-09T06:19:35;18.80;93.20
51739;DHT22;37815;52.692;6.226;2022-09-09T06:24:36;18.80;93.20
51739;DHT22;37815;52.692;6.226;2022-09-09T06:29:37;18.80;93.20
51739;DHT22;37815;52.692;6.226;2022-09-09T06:34:37;18.80;93.20
51739;DHT22;37815;52.692;6.226;2022-09-09T06:39:38;18.80;93.20
51739;DHT22;37815;52.692;6.226;2022-09-09T06:44:39;18.80;93.20
51739;DHT22;37815;52.692;6.226;2022-09-09T06:49:40;18.90;93.20
51739;DHT22;37815;52.692;6.226;2022-09-09T06:54:40;18.90;93.10
51739;DHT22;37815;52.692;6.226;2022-09-09T06:59:41;18.90;93.20
51739;DHT22;37815;52.692;6.226;2022-09-09T07:04:42;18.90;93.10
51739;DHT22;37815;52.692;6.226;2022-09-09T07:09:43;18.90;93.10
51739;DHT22;37815;52.692;6.226;2022-09-09T07:14:45;18.90;93.10
51739;DHT22;37815;52.692;6.226;2022-09-09T07:19:46;18.90;93.00
51739;DHT22;37815;52.692;6.226;2022-09-09T07:24:48;18.90;93.00
51739;DHT22;37815;52.692;6.226;2022-09-09T07:29:50;19.00;93.10
51739;DHT22;37815;52.692;6.226;2022-09-09T07:34:51;19.00;93.10
51739;DHT22;37815;52.692;6.226;2022-09-09T07:39:51;19.00;93.10
51739;DHT22;37815;52.692;6.226;2022-09-09T07:44:52;19.00;93.00
51739;DHT22;37815;52.692;6.226;2022-09-09T07:49:55;19.00;93.10
51739;DHT22;37815;52.692;6.226;2022-09-09T07:54:56;19.00;93.10
51739;DHT22;37815;52.692;6.226;2022-09-09T07:59:57;19.00;93.10
51739;DHT22;37815;52.692;6.226;2022-09-09T08:04:58;19.00;93.10
51739;DHT22;37815;52.692;6.226;2022-09-09T08:09:58;19.10;93.10
51739;DHT22;37815;52.692;6.226;2022-09-09T08:14:59;19.10;93.10
51739;DHT22;37815;52.692;6.226;2022-09-09T08:20:00;19.20;93.30
51739;DHT22;37815;52.692;6.226;2022-09-09T08:25:06;19.20;93.10
51739;DHT22;37815;52.692;6.226;2022-09-09T08:30:09;19.20;93.20
51739;DHT22;37815;52.692;6.226;2022-09-09T08:35:10;19.30;93.20
51739;DHT22;37815;52.692;6.226;2022-09-09T08:40:19;19.30;93.20
51739;DHT22;37815;52.692;6.226;2022-09-09T08:45:49;19.30;93.30
51739;DHT22;37815;52.692;6.226;2022-09-09T08:50:53;19.30;93.30
51739;DHT22;37815;52.692;6.226;2022-09-09T08:55:58;19.40;93.20
51739;DHT22;37815;52.692;6.226;2022-09-09T09:11:39;19.40;93.30
51739;DHT22;37815;52.692;6.226;2022-09-09T09:22:23;19.50;93.30
51739;DHT22;37815;52.692;6.226;2022-09-09T09:27:35;19.40;93.20
51739;DHT22;37815;52.692;6.226;2022-09-09T09:32:39;19.50;93.20
51739;DHT22;37815;52.692;6.226;2022-09-09T09:37:41;19.40;93.30
51739;DHT22;37815;52.692;6.226;2022-09-09T09:42:59;19.50;93.30
51739;DHT22;37815;52.692;6.226;2022-09-09T09:48:05;19.50;93.40
51739;DHT22;37815;52.692;6.226;2022-09-09T09:53:17;19.50;93.40
51739;DHT22;37815;52.692;6.226;2022-09-09T09:58:18;19.60;93.30
51739;DHT22;37815;52.692;6.226;2022-09-09T10:03:30;19.60;93.30
51739;DHT22;37815;52.692;6.226;2022-09-09T10:08:34;19.60;93.30
51739;DHT22;37815;52.692;6.226;2022-09-09T10:13:54;19.60;93.30
51739;DHT22;37815;52.692;6.226;2022-09-09T10:19:05;19.60;93.30
51739;DHT22;37815;52.692;6.226;2022-09-09T10:24:24;19.60;93.30
51739;DHT22;37815;52.692;6.226;2022-09-09T10:29:40;19.60;93.40
51739;DHT22;37815;52.692;6.226;2022-09-09T10:34:55;19.50;93.50
51739;DHT22;37815;52.692;6.226;2022-09-09T10:45:32;19.60;93.50
51739;DHT22;37815;52.692;6.226;2022-09-09T10:56:21;19.60;93.50
51739;DHT22;37815;52.692;6.226;2022-09-09T11:01:37;19.60;93.50
51739;DHT22;37815;52.692;6.226;2022-09-09T11:06:42;19.60;93.50
51739;DHT22;37815;52.692;6.226;2022-09-09T11:21:58;19.60;93.40
51739;DHT22;37815;52.692;6.226;2022-09-09T11:42:40;19.90;93.10
51739;DHT22;37815;52.692;6.226;2022-09-09T11:47:57;19.90;93.00
51739;DHT22;37815;52.692;6.226;2022-09-09T11:53:18;20.00;93.00
51739;DHT22;37815;52.692;6.226;2022-09-09T11:58:22;19.90;93.00
51739;DHT22;37815;52.692;6.226;2022-09-09T12:03:55;19.90;93.00
51739;DHT22;37815;52.692;6.226;2022-09-09T12:09:06;19.80;93.00
51739;DHT22;37815;52.692;6.226;2022-09-09T12:19:35;19.90;93.10
51739;DHT22;37815;52.692;6.226;2022-09-09T12:30:04;20.00;92.90
51739;DHT22;37815;52.692;6.226;2022-09-09T12:35:12;20.00;92.90
51739;DHT22;37815;52.692;6.226;2022-09-09T12:40:32;20.00;93.00
51739;DHT22;37815;52.692;6.226;2022-09-09T12:45:35;20.00;93.10
51739;DHT22;37815;52.692;6.226;2022-09-09T12:50:51;20.00;93.10
51739;DHT22;37815;52.692;6.226;2022-09-09T12:55:58;19.90;93.10
51739;DHT22;37815;52.692;6.226;2022-09-09T13:01:01;19.90;93.20
51739;DHT22;37815;52.692;6.226;2022-09-09T13:06:13;19.90;93.20
51739;DHT22;37815;52.692;6.226;2022-09-09T13:11:26;20.00;93.20
51739;DHT22;37815;52.692;6.226;2022-09-09T13:16:33;19.90;93.30
51739;DHT22;37815;52.692;6.226;2022-09-09T13:21:36;20.00;93.30
51739;DHT22;37815;52.692;6.226;2022-09-09T13:26:37;20.10;93.20
51739;DHT22;37815;52.692;6.226;2022-09-09T13:31:39;20.20;93.10
51739;DHT22;37815;52.692;6.226;2022-09-09T13:36:40;20.20;93.00
51739;DHT22;37815;52.692;6.226;2022-09-09T13:41:43;20.20;93.00
51739;DHT22;37815;52.692;6.226;2022-09-09T13:46:44;20.30;93.00
51739;DHT22;37815;52.692;6.226;2022-09-09T13:51:47;20.30;92.90
51739;DHT22;37815;52.692;6.226;2022-09-09T13:56:49;20.30;92.90
51739;DHT22;37815;52.692;6.226;2022-09-09T14:01:50;20.30;92.90
51739;DHT22;37815;52.692;6.226;2022-09-09T14:06:52;20.30;92.90
51739;DHT22;37815;52.692;6.226;2022-09-09T14:11:53;20.30;92.90
51739;DHT22;37815;52.692;6.226;2022-09-09T14:16:55;20.30;92.90
51739;DHT22;37815;52.692;6.226;2022-09-09T14:21:57;20.40;92.80
51739;DHT22;37815;52.692;6.226;2022-09-09T14:26:57;20.10;92.80
51739;DHT22;37815;52.692;6.226;2022-09-09T14:31:58;20.30;92.90
51739;DHT22;37815;52.692;6.226;2022-09-09T14:37:01;20.30;92.90
51739;DHT22;37815;52.692;6.226;2022-09-09T14:42:02;20.30;92.90
51739;DHT22;37815;52.692;6.226;2022-09-09T14:47:03;20.40;92.90
51739;DHT22;37815;52.692;6.226;2022-09-09T14:52:04;20.30;92.80
51739;DHT22;37815;52.692;6.226;2022-09-09T14:57:05;20.30;92.90
51739;DHT22;37815;52.692;6.226;2022-09-09T15:02:07;20.30;92.90
51739;DHT22;37815;52.692;6.226;2022-09-09T15:07:08;20.30;92.90
51739;DHT22;37815;52.692;6.226;2022-09-09T15:12:09;20.30;92.90
51739;DHT22;37815;52.692;6.226;2022-09-09T15:17:10;20.30;92.90
51739;DHT22;37815;52.692;6.226;2022-09-09T15:22:10;20.30;92.90
51739;DHT22;37815;52.692;6.226;2022-09-09T15:27:11;20.30;93.00
51739;DHT22;37815;52.692;6.226;2022-09-09T15:32:12;20.30;93.00
51739;DHT22;37815;52.692;6.226;2022-09-09T15:37:16;20.20;93.00
51739;DHT22;37815;52.692;6.226;2022-09-09T15:42:16;20.30;93.00
51739;DHT22;37815;52.692;6.226;2022-09-09T15:47:17;20.30;93.00
51739;DHT22;37815;52.692;6.226;2022-09-09T15:52:18;20.30;93.10
51739;DHT22;37815;52.692;6.226;2022-09-09T15:57:19;20.30;93.20
51739;DHT22;37815;52.692;6.226;2022-09-09T16:02:19;20.20;93.20
51739;DHT22;37815;52.692;6.226;2022-09-09T16:07:20;20.20;93.30
51739;DHT22;37815;52.692;6.226;2022-09-09T16:12:20;20.20;93.30
51739;DHT22;37815;52.692;6.226;2022-09-09T16:17:21;20.20;93.40
51739;DHT22;37815;52.692;6.226;2022-09-09T16:22:22;20.20;93.40
51739;DHT22;37815;52.692;6.226;2022-09-09T16:27:24;20.20;93.40
51739;DHT22;37815;52.692;6.226;2022-09-09T16:32:25;20.20;93.40
51739;DHT22;37815;52.692;6.226;2022-09-09T16:37:25;20.10;93.40
51739;DHT22;37815;52.692;6.226;2022-09-09T16:42:26;20.10;93.40
51739;DHT22;37815;52.692;6.226;2022-09-09T16:47:28;20.10;93.50
51739;DHT22;37815;52.692;6.226;2022-09-09T16:52:28;20.10;93.50
51739;DHT22;37815;52.692;6.226;2022-09-09T16:57:29;20.10;93.50
51739;DHT22;37815;52.692;6.226;2022-09-09T17:02:30;20.10;93.60
51739;DHT22;37815;52.692;6.226;2022-09-09T17:07:31;20.10;93.60
51739;DHT22;37815;52.692;6.226;2022-09-09T17:12:32;20.00;93.90
51739;DHT22;37815;52.692;6.226;2022-09-09T17:17:33;19.70;94.40
51739;DHT22;37815;52.692;6.226;2022-09-09T17:22:34;19.70;94.50
51739;DHT22;37815;52.692;6.226;2022-09-09T17:27:35;19.80;94.50
51739;DHT22;37815;52.692;6.226;2022-09-09T17:32:36;19.80;94.40
51739;DHT22;37815;52.692;6.226;2022-09-09T17:37:37;19.80;94.40
51739;DHT22;37815;52.692;6.226;2022-09-09T17:42:37;19.80;94.40
51739;DHT22;37815;52.692;6.226;2022-09-09T17:47:38;19.90;94.40
51739;DHT22;37815;52.692;6.226;2022-09-09T17:52:40;19.80;94.40
51739;DHT22;37815;52.692;6.226;2022-09-09T17:57:41;19.80;94.40
51739;DHT22;37815;52.692;6.226;2022-09-09T18:02:42;19.80;94.40
51739;DHT22;37815;52.692;6.226;2022-09-09T18:07:43;19.80;94.40
51739;DHT22;37815;52.692;6.226;2022-09-09T18:12:44;19.80;94.70
51739;DHT22;37815;52.692;6.226;2022-09-09T18:17:45;19.70;94.80
51739;DHT22;37815;52.692;6.226;2022-09-09T18:22:45;19.70;94.80
51739;DHT22;37815;52.692;6.226;2022-09-09T18:27:46;19.70;94.90
51739;DHT22;37815;52.692;6.226;2022-09-09T18:32:48;19.70;94.90
51739;DHT22;37815;52.692;6.226;2022-09-09T18:37:50;19.70;94.90
51739;DHT22;37815;52.692;6.226;2022-09-09T18:42:51;19.70;94.90
51739;DHT22;37815;52.692;6.226;2022-09-09T18:47:52;19.70;94.90
51739;DHT22;37815;52.692;6.226;2022-09-09T18:52:52;19.70;94.90
51739;DHT22;37815;52.692;6.226;2022-09-09T18:57:53;19.70;94.90
51739;DHT22;37815;52.692;6.226;2022-09-09T19:02:54;19.60;94.90
51739;DHT22;37815;52.692;6.226;2022-09-09T19:07:55;19.60;94.90
51739;DHT22;37815;52.692;6.226;2022-09-09T19:12:56;19.60;94.80
51739;DHT22;37815;52.692;6.226;2022-09-09T19:17:57;19.60;94.90
51739;DHT22;37815;52.692;6.226;2022-09-09T19:22:57;19.60;94.90
51739;DHT22;37815;52.692;6.226;2022-09-09T19:27:59;19.60;94.80
51739;DHT22;37815;52.692;6.226;2022-09-09T19:33:00;19.60;94.90
51739;DHT22;37815;52.692;6.226;2022-09-09T19:38:01;19.60;94.80
51739;DHT22;37815;52.692;6.226;2022-09-09T19:43:02;19.60;94.80
51739;DHT22;37815;52.692;6.226;2022-09-09T19:48:02;19.50;94.80
51739;DHT22;37815;52.692;6.226;2022-09-09T19:53:03;19.50;94.80
51739;DHT22;37815;52.692;6.226;2022-09-09T19:58:04;19.50;94.80
51739;DHT22;37815;52.692;6.226;2022-09-09T20:03:04;19.50;94.80
51739;DHT22;37815;52.692;6.226;2022-09-09T20:08:05;19.50;94.80
51739;DHT22;37815;52.692;6.226;2022-09-09T20:13:06;19.50;94.80
51739;DHT22;37815;52.692;6.226;2022-09-09T20:18:06;19.50;94.80
51739;DHT22;37815;52.692;6.226;2022-09-09T20:23:07;19.40;94.80
51739;DHT22;37815;52.692;6.226;2022-09-09T20:28:08;19.40;94.80
51739;DHT22;37815;52.692;6.226;2022-09-09T20:33:09;19.40;94.80
51739;DHT22;37815;52.692;6.226;2022-09-09T20:38:10;19.40;94.80
51739;DHT22;37815;52.692;6.226;2022-09-09T20:43:11;19.40;94.70
51739;DHT22;37815;52.692;6.226;2022-09-09T20:48:12;19.40;94.70
51739;DHT22;37815;52.692;6.226;2022-09-09T20:53:14;19.30;94.70
51739;DHT22;37815;52.692;6.226;2022-09-09T20:58:14;19.30;94.70
51739;DHT22;37815;52.692;6.226;2022-09-09T21:03:15;19.30;94.70
51739;DHT22;37815;52.692;6.226;2022-09-09T21:08:16;19.10;94.60
51739;DHT22;37815;52.692;6.226;2022-09-09T21:13:17;19.30;94.70
51739;DHT22;37815;52.692;6.226;2022-09-09T21:18:18;19.20;94.60
51739;DHT22;37815;52.692;6.226;2022-09-09T21:23:19;19.30;94.70
51739;DHT22;37815;52.692;6.226;2022-09-09T21:28:20;19.20;94.60
51739;DHT22;37815;52.692;6.226;2022-09-09T21:33:23;19.20;94.60
51739;DHT22;37815;52.692;6.226;2022-09-09T21:38:24;19.20;94.60
51739;DHT22;37815;52.692;6.226;2022-09-09T21:43:24;19.20;94.60
51739;DHT22;37815;52.692;6.226;2022-09-09T21:48:25;19.10;94.60
51739;DHT22;37815;52.692;6.226;2022-09-09T21:53:26;19.10;94.60
51739;DHT22;37815;52.692;6.226;2022-09-09T21:58:27;19.10;94.60
51739;DHT22;37815;52.692;6.226;2022-09-09T22:03:27;19.10;94.70
51739;DHT22;37815;52.692;6.226;2022-09-09T22:08:28;19.10;94.70
51739;DHT22;37815;52.692;6.226;2022-09-09T22:13:29;19.10;94.70
51739;DHT22;37815;52.692;6.226;2022-09-09T22:18:30;19.10;94.70
51739;DHT22;37815;52.692;6.226;2022-09-09T22:23:31;19.10;94.70
51739;DHT22;37815;52.692;6.226;2022-09-09T22:28:33;19.00;94.70
51739;DHT22;37815;52.692;6.226;2022-09-09T22:33:34;19.00;94.70
51739;DHT22;37815;52.692;6.226;2022-09-09T22:38:35;19.00;94.70
51739;DHT22;37815;52.692;6.226;2022-09-09T22:43:36;19.00;94.70
51739;DHT22;37815;52.692;6.226;2022-09-09T22:48:37;19.00;94.70
51739;DHT22;37815;52.692;6.226;2022-09-09T22:53:39;19.00;94.70
51739;DHT22;37815;52.692;6.226;2022-09-09T22:58:40;19.00;94.70
51739;DHT22;37815;52.692;6.226;2022-09-09T23:03:41;18.90;94.70
51739;DHT22;37815;52.692;6.226;2022-09-09T23:08:45;18.90;94.70
51739;DHT22;37815;52.692;6.226;2022-09-09T23:13:48;18.90;94.70
51739;DHT22;37815;52.692;6.226;2022-09-09T23:18:51;18.90;94.70
51739;DHT22;37815;52.692;6.226;2022-09-09T23:23:54;18.90;94.70
51739;DHT22;37815;52.692;6.226;2022-09-09T23:28:56;18.90;94.70
51739;DHT22;37815;52.692;6.226;2022-09-09T23:33:59;18.90;94.70
51739;DHT22;37815;52.692;6.226;2022-09-09T23:39:02;18.90;94.70
51739;DHT22;37815;52.692;6.226;2022-09-09T23:44:03;18.80;94.70
51739;DHT22;37815;52.692;6.226;2022-09-09T23:49:04;18.80;94.70
51739;DHT22;37815;52.692;6.226;2022-09-09T23:54:07;18.80;94.70
51739;DHT22;37815;52.692;6.226;2022-09-09T23:59:09;18.80;94.70
